createdAt,value
2018-10-19T00:01:22.322Z,34.80
2018-10-19T00:03:50.847Z,36.67
2018-10-19T00:06:19.403Z,34.77
2018-10-19T00:08:47.924Z,34.83
2018-10-19T00:11:16.626Z,40.47
2018-10-19T00:13:45.001Z,40.13
2018-10-19T00:16:13.546Z,40.73
2018-10-19T00:18:42.034Z,35.33
2018-10-19T00:21:10.724Z,41.87
2018-10-19T00:23:39.177Z,42.57
2018-10-19T00:26:07.733Z,42.20
2018-10-19T00:28:36.256Z,42.03
2018-10-19T00:31:04.822Z,40.80
2018-10-19T00:33:33.339Z,32.20
2018-10-19T00:36:01.831Z,32.10
2018-10-19T00:38:30.321Z,37.23
2018-10-19T00:40:58.833Z,37.63
2018-10-19T00:43:27.371Z,32.63
2018-10-19T00:45:55.895Z,28.20
2018-10-19T00:48:24.497Z,35.13
2018-10-19T00:50:53.065Z,38.43
2018-10-19T00:53:21.594Z,42.90
2018-10-19T00:55:50.109Z,40.70
2018-10-19T00:58:18.624Z,38.83
2018-10-19T01:00:47.174Z,44.27
2018-10-19T01:03:15.720Z,37.07
2018-10-19T01:05:44.201Z,40.53
2018-10-19T01:08:12.803Z,39.40
2018-10-19T01:10:41.347Z,39.53
2018-10-19T01:13:09.863Z,37.23
2018-10-19T01:15:38.395Z,36.27
2018-10-19T01:18:06.928Z,41.87
2018-10-19T01:20:35.470Z,34.90
2018-10-19T01:23:04.075Z,35.00
2018-10-19T01:25:32.554Z,41.77
2018-10-19T01:28:01.079Z,39.67
2018-10-19T01:30:29.625Z,43.20
2018-10-19T01:32:58.159Z,36.63
2018-10-19T01:35:26.643Z,34.63
2018-10-19T01:37:55.162Z,33.07
2018-10-19T01:40:23.648Z,27.70
2018-10-19T01:42:52.160Z,32.07
2018-10-19T01:45:20.694Z,37.23
2018-10-19T01:47:49.211Z,43.47
2018-10-19T01:50:17.745Z,40.47
2018-10-19T01:52:46.282Z,42.23
2018-10-19T01:55:14.807Z,41.13
2018-10-19T01:57:43.313Z,43.97
2018-10-19T02:00:11.848Z,43.27
2018-10-19T02:02:40.352Z,44.30
2018-10-19T02:05:08.988Z,44.60
2018-10-19T02:07:37.474Z,44.90
2018-10-19T02:10:06.664Z,47.30
2018-10-19T02:12:35.196Z,54.27
2018-10-19T02:15:03.822Z,60.93
2018-10-19T02:17:32.304Z,70.67
2018-10-19T02:20:00.836Z,61.23
2018-10-19T02:22:29.321Z,60.23
2018-10-19T02:24:57.843Z,53.73
2018-10-19T02:27:26.354Z,55.07
2018-10-19T02:29:54.863Z,64.20
2018-10-19T02:32:23.415Z,53.93
2018-10-19T02:34:51.899Z,54.03
2018-10-19T02:37:20.391Z,48.83
2018-10-19T02:39:48.881Z,63.13
2018-10-19T02:42:17.393Z,60.53
2018-10-19T02:44:45.893Z,64.40
2018-10-19T02:47:14.529Z,60.90
2018-10-19T02:49:43.012Z,64.87
2018-10-19T02:52:11.523Z,62.30
2018-10-19T02:54:40.006Z,58.37
2018-10-19T02:57:08.641Z,61.27
2018-10-19T02:59:37.075Z,54.37
2018-10-19T03:02:06.159Z,68.00
2018-10-19T03:04:34.667Z,69.60
2018-10-19T03:07:03.227Z,60.37
2018-10-19T03:09:31.731Z,67.97
2018-10-19T03:12:00.238Z,67.20
2018-10-19T03:14:28.698Z,71.37
2018-10-19T03:16:57.291Z,65.60
2018-10-19T03:19:25.761Z,72.40
2018-10-19T03:21:54.298Z,77.70
2018-10-19T03:24:22.775Z,71.90
2018-10-19T03:26:51.295Z,72.57
2018-10-19T03:29:19.914Z,76.87
2018-10-19T03:31:48.372Z,72.90
2018-10-19T03:34:16.909Z,88.70
2018-10-19T03:36:45.379Z,95.23
2018-10-19T03:39:13.921Z,93.57
2018-10-19T03:41:42.399Z,86.97
2018-10-19T03:44:10.946Z,77.83
2018-10-19T03:46:39.463Z,89.60
2018-10-19T03:49:08.074Z,84.50
2018-10-19T03:51:36.487Z,85.30
2018-10-19T03:54:05.283Z,91.67
2018-10-19T03:56:33.807Z,93.93
2018-10-19T03:59:02.380Z,91.13
2018-10-19T04:01:30.867Z,99.10
2018-10-19T04:03:59.383Z,97.77
2018-10-19T04:06:27.875Z,80.13
2018-10-19T04:08:56.420Z,103.40
2018-10-19T04:11:24.922Z,94.80
2018-10-19T04:13:53.430Z,131.70
2018-10-19T04:16:22.355Z,102.00
2018-10-19T04:18:50.866Z,100.20
2018-10-19T04:21:19.509Z,89.23
2018-10-19T04:23:47.887Z,111.90
2018-10-19T04:26:16.400Z,135.27
2018-10-19T04:28:44.914Z,271.57
2018-10-19T04:31:13.464Z,203.10
2018-10-19T04:33:41.983Z,323.23
2018-10-19T04:36:10.952Z,356.97
2018-10-19T04:38:39.475Z,361.70
2018-10-19T04:41:08.095Z,438.30
2018-10-19T04:43:36.588Z,540.20
2018-10-19T04:46:05.494Z,338.97
2018-10-19T04:48:34.021Z,377.37
2018-10-19T04:51:02.610Z,270.27
2018-10-19T04:53:31.172Z,340.50
2018-10-19T04:55:59.644Z,454.63
2018-10-19T04:58:28.207Z,554.23
2018-10-19T05:00:56.720Z,330.93
2018-10-19T05:03:25.262Z,404.83
2018-10-19T05:05:53.942Z,299.50
2018-10-19T05:08:22.425Z,372.57
2018-10-19T05:10:50.838Z,308.10
2018-10-19T05:13:19.387Z,250.27
2018-10-19T05:15:47.991Z,497.00
2018-10-19T05:18:16.507Z,438.40
2018-10-19T05:20:45.034Z,455.10
2018-10-19T05:23:13.645Z,443.73
2018-10-19T05:25:42.107Z,496.57
2018-10-19T05:28:10.628Z,346.03
2018-10-19T05:30:39.188Z,202.33
2018-10-19T05:33:07.739Z,387.47
2018-10-19T05:35:36.267Z,280.30
2018-10-19T05:38:04.884Z,651.17
2018-10-19T05:40:33.427Z,732.20
2018-10-19T05:43:01.975Z,212.03
2018-10-19T05:45:30.490Z,242.70
2018-10-19T05:47:59.010Z,370.60
2018-10-19T05:50:27.552Z,517.67
2018-10-19T05:52:56.107Z,368.53
2018-10-19T05:55:24.608Z,432.30
2018-10-19T05:57:53.106Z,194.20
2018-10-19T06:00:21.697Z,287.83
2018-10-19T06:02:50.227Z,207.50
2018-10-19T06:05:18.788Z,241.73
2018-10-19T06:07:47.320Z,226.43
2018-10-19T06:10:15.827Z,200.53
2018-10-19T06:12:44.355Z,209.30
2018-10-19T06:15:12.909Z,222.83
2018-10-19T06:17:41.447Z,146.80
2018-10-19T06:20:10.079Z,108.53
2018-10-19T06:22:38.518Z,118.87
2018-10-19T06:25:07.094Z,87.33
2018-10-19T06:27:35.598Z,147.97
2018-10-19T06:30:04.352Z,93.53
2018-10-19T06:32:32.855Z,93.30
2018-10-19T06:35:01.417Z,122.20
2018-10-19T06:37:29.884Z,194.07
2018-10-19T06:39:58.486Z,122.80
2018-10-19T06:42:27.000Z,149.40
2018-10-19T06:44:55.544Z,241.97
2018-10-19T06:47:24.175Z,196.97
2018-10-19T06:49:52.650Z,188.90
2018-10-19T06:52:21.238Z,102.93
2018-10-19T06:54:49.822Z,127.90
2018-10-19T06:57:18.522Z,105.43
2018-10-19T06:59:47.147Z,89.13
2018-10-19T07:02:15.744Z,147.57
2018-10-19T07:04:44.280Z,136.30
2018-10-19T07:07:12.818Z,78.47
2018-10-19T07:09:41.345Z,69.80
2018-10-19T07:12:09.957Z,78.83
2018-10-19T07:14:38.431Z,86.60
2018-10-19T07:17:07.012Z,64.87
2018-10-19T07:19:35.515Z,52.50
2018-10-19T07:22:04.087Z,74.50
2018-10-19T07:24:32.627Z,56.77
2018-10-19T07:27:01.173Z,63.17
2018-10-19T07:29:29.785Z,98.33
2018-10-19T07:31:58.357Z,66.03
2018-10-19T07:34:26.877Z,138.20
2018-10-19T07:36:55.419Z,69.80
2018-10-19T07:39:23.927Z,67.83
2018-10-19T07:41:52.529Z,53.27
2018-10-19T07:44:21.053Z,62.87
2018-10-19T07:46:49.575Z,71.23
2018-10-19T07:49:18.123Z,61.30
2018-10-19T07:51:46.647Z,65.20
2018-10-19T07:54:15.224Z,68.37
2018-10-19T07:56:43.709Z,61.37
2018-10-19T07:59:12.295Z,63.87
2018-10-19T08:01:40.809Z,61.33
2018-10-19T08:04:09.334Z,62.40
2018-10-19T08:06:37.884Z,59.13
2018-10-19T08:09:09.134Z,60.47
2018-10-19T08:11:37.774Z,55.10
2018-10-19T08:14:06.460Z,64.47
2018-10-19T08:16:35.114Z,61.40
2018-10-19T08:19:03.750Z,51.33
2018-10-19T08:21:32.351Z,45.97
2018-10-19T08:24:00.949Z,52.90
2018-10-19T08:26:29.472Z,47.60
2018-10-19T08:29:00.918Z,54.20
2018-10-19T08:31:29.462Z,56.40
2018-10-19T08:33:57.981Z,61.17
2018-10-19T08:36:26.538Z,55.53
2018-10-19T08:38:55.073Z,57.20
2018-10-19T08:41:23.611Z,52.70
2018-10-19T08:43:52.121Z,59.33
2018-10-19T08:46:25.972Z,53.73
2018-10-19T08:48:54.542Z,56.87
2018-10-19T08:51:23.044Z,60.60
2018-10-19T08:53:51.582Z,60.13
2018-10-19T08:56:20.140Z,54.67
2018-10-19T08:58:48.662Z,50.27
2018-10-19T09:01:17.215Z,55.53
2018-10-19T09:03:45.779Z,60.07
2018-10-19T09:06:14.325Z,54.27
2018-10-19T09:08:42.824Z,52.23
2018-10-19T09:11:11.449Z,49.40
2018-10-19T09:13:40.371Z,49.97
2018-10-19T09:16:09.143Z,46.37
2018-10-19T09:18:37.837Z,39.50
2018-10-19T09:21:06.462Z,41.80
2018-10-19T09:23:34.950Z,39.60
2018-10-19T09:26:03.606Z,40.50
2018-10-19T09:28:32.113Z,39.90
2018-10-19T09:31:00.682Z,40.30
2018-10-19T09:33:29.239Z,33.63
2018-10-19T09:35:57.887Z,34.27
2018-10-19T09:38:26.433Z,33.60
2018-10-19T09:40:55.059Z,28.90
2018-10-19T09:43:23.574Z,30.80
2018-10-19T09:45:52.183Z,31.00
2018-10-19T09:48:20.743Z,32.73
2018-10-19T09:50:49.321Z,29.27
2018-10-19T09:53:17.933Z,25.83
2018-10-19T09:55:46.491Z,38.07
2018-10-19T09:58:15.101Z,28.80
2018-10-19T10:00:48.775Z,30.70
2018-10-19T10:03:17.525Z,31.57
2018-10-19T10:05:45.962Z,29.93
2018-10-19T10:08:14.518Z,39.67
2018-10-19T10:10:43.091Z,42.03
2018-10-19T10:13:11.748Z,31.37
2018-10-19T10:15:40.300Z,37.60
2018-10-19T10:18:10.004Z,38.70
2018-10-19T10:20:39.323Z,41.00
2018-10-19T10:23:08.149Z,40.60
2018-10-19T10:25:37.405Z,36.43
2018-10-19T10:28:06.400Z,39.50
2018-10-19T10:30:35.115Z,42.03
2018-10-19T10:33:03.916Z,46.17
2018-10-19T10:35:32.470Z,41.93
2018-10-19T10:38:01.018Z,33.60
2018-10-19T10:40:29.531Z,32.60
2018-10-19T10:43:04.961Z,40.50
2018-10-19T10:45:33.523Z,45.23
2018-10-19T10:48:02.081Z,36.40
2018-10-19T10:50:30.700Z,39.70
2018-10-19T10:52:59.295Z,34.50
2018-10-19T10:55:27.858Z,32.43
2018-10-19T10:57:56.418Z,35.17
2018-10-19T11:00:25.027Z,38.73
2018-10-19T11:02:54.458Z,35.83
2018-10-19T11:05:23.033Z,38.23
2018-10-19T11:07:51.584Z,37.40
2018-10-19T11:10:20.147Z,36.33
2018-10-19T11:12:48.957Z,42.07
2018-10-19T11:15:17.520Z,42.53
2018-10-19T11:17:46.100Z,46.63
2018-10-19T11:20:14.622Z,36.07
2018-10-19T11:22:43.183Z,35.13
2018-10-19T11:25:11.784Z,34.30
2018-10-19T11:27:40.327Z,39.07
2018-10-19T11:30:09.411Z,43.80
2018-10-19T11:32:37.990Z,41.60
2018-10-19T11:35:06.954Z,37.23
2018-10-19T11:37:35.532Z,37.27
2018-10-19T11:40:28.240Z,36.37
2018-10-19T11:42:57.278Z,35.20
2018-10-19T11:45:27.386Z,34.47
2018-10-19T11:47:55.992Z,33.27
2018-10-19T11:50:24.574Z,29.03
2018-10-19T11:52:53.155Z,40.47
2018-10-19T11:55:21.743Z,31.50
2018-10-19T11:57:51.287Z,36.90
2018-10-19T12:00:19.895Z,31.10
2018-10-19T12:02:48.442Z,31.83
2018-10-19T12:05:17.016Z,30.00
2018-10-19T12:07:45.595Z,28.40
2018-10-19T12:10:14.751Z,33.27
2018-10-19T12:12:44.007Z,30.70
2018-10-19T12:15:14.286Z,28.50
2018-10-19T12:17:43.627Z,30.77
2018-10-19T12:20:14.763Z,36.93
2018-10-19T12:22:43.322Z,29.10
2018-10-19T12:25:13.173Z,26.60
2018-10-19T12:27:41.895Z,30.47
2018-10-19T12:30:11.135Z,33.30
2018-10-19T12:32:39.890Z,30.13
2018-10-19T12:35:10.072Z,29.07
2018-10-19T12:37:38.658Z,30.67
2018-10-19T12:40:08.212Z,27.20
2018-10-19T12:42:37.217Z,28.53
2018-10-19T12:45:11.384Z,31.00
2018-10-19T12:47:43.224Z,31.10
2018-10-19T12:50:11.815Z,33.83
2018-10-19T12:52:40.366Z,32.00
2018-10-19T12:55:09.711Z,34.20
2018-10-19T12:57:38.288Z,29.47
2018-10-19T13:00:07.912Z,33.23
2018-10-19T13:02:36.474Z,35.93
2018-10-19T13:05:05.219Z,28.17
2018-10-19T13:07:33.760Z,39.63
2018-10-19T13:10:02.286Z,37.10
2018-10-19T13:12:30.855Z,31.40
2018-10-19T13:14:59.453Z,30.40
2018-10-19T13:17:28.036Z,31.90
2018-10-19T13:19:56.576Z,36.80
2018-10-19T13:22:25.131Z,30.20
2018-10-19T13:24:53.712Z,33.40
2018-10-19T13:27:22.228Z,33.60
2018-10-19T13:29:50.790Z,34.73
2018-10-19T13:32:19.306Z,34.67
2018-10-19T13:34:47.897Z,32.97
2018-10-19T13:37:16.412Z,33.53
2018-10-19T13:39:44.974Z,32.33
2018-10-19T13:42:13.568Z,32.40
2018-10-19T13:44:42.110Z,34.30
2018-10-19T13:47:10.814Z,30.67
2018-10-19T13:49:39.358Z,33.97
2018-10-19T13:52:07.991Z,32.90
2018-10-19T13:54:36.566Z,44.60
2018-10-19T13:57:05.224Z,32.30
2018-10-19T13:59:33.755Z,32.13
2018-10-19T14:02:02.337Z,32.30
2018-10-19T14:04:30.875Z,34.33
2018-10-19T14:06:59.479Z,38.10
2018-10-19T14:09:28.013Z,33.73
2018-10-19T14:11:56.566Z,30.77
2018-10-19T14:14:25.098Z,32.50
2018-10-19T14:16:53.608Z,36.27
2018-10-19T14:19:22.248Z,34.90
2018-10-19T14:21:50.724Z,43.43
2018-10-19T14:24:19.353Z,38.60
2018-10-19T14:26:48.056Z,36.23
2018-10-19T14:29:16.604Z,36.40
2018-10-19T14:31:45.151Z,37.27
2018-10-19T14:34:13.760Z,34.80
2018-10-19T14:36:42.310Z,35.47
2018-10-19T14:39:10.941Z,33.03
2018-10-19T14:41:39.479Z,33.77
2018-10-19T14:44:08.067Z,37.77
2018-10-19T14:46:36.649Z,35.43
2018-10-19T14:49:05.569Z,40.63
2018-10-19T14:51:34.159Z,36.47
2018-10-19T14:54:02.745Z,38.30
2018-10-19T14:56:31.333Z,44.13
2018-10-19T14:58:59.912Z,35.37
2018-10-19T15:01:28.486Z,43.47
2018-10-19T15:03:57.065Z,40.93
2018-10-19T15:06:25.602Z,39.87
2018-10-19T15:08:54.224Z,39.27
2018-10-19T15:11:23.122Z,41.10
2018-10-19T15:13:51.294Z,33.63
2018-10-19T15:16:19.863Z,35.03
2018-10-19T15:18:48.429Z,39.87
2018-10-19T15:21:17.018Z,43.47
2018-10-19T15:23:45.727Z,41.43
2018-10-19T15:26:14.271Z,40.63
2018-10-19T15:28:42.762Z,39.20
2018-10-19T15:31:11.275Z,38.33
2018-10-19T15:33:39.795Z,37.43
2018-10-19T15:36:08.416Z,42.07
2018-10-19T15:38:36.909Z,35.80
2018-10-19T15:41:05.695Z,41.90
2018-10-19T15:43:34.309Z,41.27
2018-10-19T15:46:02.941Z,37.27
2018-10-19T15:48:31.505Z,40.23
2018-10-19T15:51:00.122Z,40.47
2018-10-19T15:53:28.572Z,37.60
2018-10-19T15:55:57.080Z,39.07
2018-10-19T15:58:25.659Z,35.83
2018-10-19T16:00:54.176Z,38.43
2018-10-19T16:03:22.685Z,38.90
2018-10-19T16:05:51.198Z,49.43
2018-10-19T16:08:19.751Z,40.40
2018-10-19T16:10:48.309Z,50.20
2018-10-19T16:13:16.822Z,37.10
2018-10-19T16:15:45.306Z,40.50
2018-10-19T16:18:13.939Z,37.20
2018-10-19T16:20:42.385Z,37.47
2018-10-19T16:23:10.926Z,42.27
2018-10-19T16:25:39.502Z,38.90
2018-10-19T16:28:08.052Z,40.00
2018-10-19T16:30:36.600Z,44.23
2018-10-19T16:33:05.303Z,36.07
2018-10-19T16:35:33.794Z,39.60
2018-10-19T16:38:02.654Z,38.43
2018-10-19T16:40:31.167Z,43.53
2018-10-19T16:42:59.675Z,52.57
2018-10-19T16:45:28.217Z,126.60
2018-10-19T16:47:56.818Z,153.17
2018-10-19T16:50:25.359Z,126.07
2018-10-19T16:52:53.984Z,107.33
2018-10-19T16:55:22.465Z,69.80
2018-10-19T16:57:50.972Z,68.63
2018-10-19T17:00:19.479Z,58.20
2018-10-19T17:02:48.037Z,57.80
2018-10-19T17:05:16.558Z,74.13
2018-10-19T17:07:45.074Z,54.90
2018-10-19T17:10:13.606Z,55.13
2018-10-19T17:12:42.207Z,50.23
2018-10-19T17:15:10.847Z,58.37
2018-10-19T17:17:39.408Z,58.17
2018-10-19T17:20:08.038Z,55.12
2018-10-19T17:22:37.204Z,57.50
2018-10-19T17:25:08.755Z,56.30
2018-10-19T17:27:37.356Z,50.40
2018-10-19T17:30:08.260Z,52.07
2018-10-19T17:32:37.155Z,60.50
2018-10-19T17:35:05.811Z,49.50
2018-10-19T17:37:34.385Z,52.03
2018-10-19T17:40:03.097Z,52.67
2018-10-19T17:42:31.652Z,63.03
2018-10-19T17:45:00.213Z,57.70
2018-10-19T17:47:28.676Z,48.10
2018-10-19T17:49:57.210Z,50.43
2018-10-19T17:52:25.729Z,59.23
2018-10-19T17:54:54.350Z,54.50
2018-10-19T17:57:22.857Z,65.23
2018-10-19T17:59:51.408Z,64.30
2018-10-19T18:02:20.008Z,52.07
2018-10-19T18:04:48.530Z,56.43
2018-10-19T18:07:17.065Z,59.53
2018-10-19T18:09:46.611Z,52.63
2018-10-19T18:12:15.199Z,61.23
2018-10-19T18:14:43.795Z,58.87
2018-10-19T18:17:12.519Z,61.03
2018-10-19T18:19:40.956Z,59.27
2018-10-19T18:22:09.829Z,52.87
2018-10-19T18:24:38.130Z,62.87
2018-10-19T18:27:06.757Z,62.57
2018-10-19T18:29:35.306Z,61.17
2018-10-19T18:32:03.900Z,62.73
2018-10-19T18:34:32.465Z,70.93
2018-10-19T18:37:01.028Z,60.10
2018-10-19T18:39:29.549Z,56.63
2018-10-19T18:41:58.088Z,64.60
2018-10-19T18:44:26.636Z,62.97
2018-10-19T18:46:55.284Z,67.10
2018-10-19T18:49:23.789Z,73.03
2018-10-19T18:51:52.494Z,66.87
2018-10-19T18:54:20.997Z,66.30
2018-10-19T18:56:49.570Z,66.30
2018-10-19T18:59:18.127Z,63.23
2018-10-19T19:01:46.653Z,63.50
2018-10-19T19:04:15.231Z,67.27
2018-10-19T19:06:43.814Z,68.33
2018-10-19T19:09:13.879Z,66.10
2018-10-19T19:11:42.520Z,69.73
2018-10-19T19:14:11.122Z,69.03
2018-10-19T19:16:39.575Z,63.57
2018-10-19T19:19:08.161Z,67.07
2018-10-19T19:21:36.738Z,65.63
2018-10-19T19:24:10.622Z,69.13
2018-10-19T19:26:39.103Z,69.47
2018-10-19T19:29:07.662Z,70.67
2018-10-19T19:31:36.107Z,85.03
2018-10-19T19:34:09.832Z,67.87
2018-10-19T19:36:38.366Z,73.23
2018-10-19T19:39:09.176Z,66.80
2018-10-19T19:41:43.084Z,70.83
2018-10-19T19:44:11.751Z,65.00
2018-10-19T19:46:40.178Z,73.40
2018-10-19T19:49:14.114Z,62.43
2018-10-19T19:51:42.642Z,64.83
2018-10-19T19:54:11.175Z,67.13
2018-10-19T19:56:39.707Z,65.93
2018-10-19T19:59:08.294Z,68.57
2018-10-19T20:01:36.742Z,69.63
2018-10-19T20:04:05.419Z,59.67
2018-10-19T20:06:33.960Z,60.80
2018-10-19T20:09:02.536Z,63.83
2018-10-19T20:11:31.095Z,65.23
2018-10-19T20:13:59.685Z,58.63
2018-10-19T20:16:28.206Z,67.23
2018-10-19T20:18:56.739Z,58.57
2018-10-19T20:21:25.239Z,65.23
2018-10-19T20:23:53.859Z,65.83
2018-10-19T20:26:22.408Z,58.30
2018-10-19T20:28:50.959Z,61.43
2018-10-19T20:31:19.551Z,47.93
2018-10-19T20:33:48.052Z,58.87
2018-10-19T20:36:16.687Z,76.90
2018-10-19T20:38:45.331Z,54.80
2018-10-19T20:41:13.975Z,50.13
2018-10-19T20:43:42.498Z,51.30
2018-10-19T20:46:11.025Z,54.33
2018-10-19T20:48:39.670Z,68.53
2018-10-19T20:51:08.220Z,77.60
2018-10-19T20:53:36.750Z,59.73
2018-10-19T20:56:05.339Z,61.33
2018-10-19T20:58:33.844Z,55.33
2018-10-19T21:01:02.376Z,53.93
2018-10-19T21:03:30.939Z,49.00
2018-10-19T21:05:59.477Z,53.13
2018-10-19T21:08:28.011Z,52.70
2018-10-19T21:10:56.591Z,52.10
2018-10-19T21:13:25.128Z,49.47
2018-10-19T21:15:53.668Z,51.83
2018-10-19T21:18:22.211Z,45.00
2018-10-19T21:20:50.753Z,51.50
2018-10-19T21:23:19.333Z,44.33
2018-10-19T21:25:47.853Z,42.77
2018-10-19T21:28:16.426Z,45.80
2018-10-19T21:30:45.027Z,47.10
2018-10-19T21:33:13.549Z,43.00
2018-10-19T21:35:42.105Z,43.43
2018-10-19T21:38:10.662Z,48.37
2018-10-19T21:40:39.114Z,46.90
2018-10-19T21:43:07.654Z,49.40
2018-10-19T21:45:36.147Z,50.10
2018-10-19T21:48:04.886Z,45.70
2018-10-19T21:50:33.444Z,47.57
2018-10-19T21:53:02.027Z,42.63
2018-10-19T21:55:30.543Z,46.60
2018-10-19T21:57:59.062Z,42.03
2018-10-19T22:00:27.689Z,46.53
2018-10-19T22:02:56.203Z,52.03
2018-10-19T22:05:24.736Z,43.90
2018-10-19T22:07:53.260Z,47.33
2018-10-19T22:10:21.804Z,49.93
2018-10-19T22:12:50.315Z,44.90
2018-10-19T22:15:18.875Z,54.23
2018-10-19T22:17:47.403Z,53.27
2018-10-19T22:20:15.937Z,56.47
2018-10-19T22:22:44.491Z,55.10
2018-10-19T22:25:13.186Z,61.80
2018-10-19T22:27:41.648Z,63.10
2018-10-19T22:30:10.246Z,73.20
2018-10-19T22:32:39.195Z,60.90
2018-10-19T22:35:07.795Z,69.23
2018-10-19T22:37:36.339Z,86.00
2018-10-19T22:40:05.515Z,86.83
2018-10-19T22:42:34.092Z,84.67
2018-10-19T22:45:02.661Z,78.97
2018-10-19T22:47:31.428Z,80.10
2018-10-19T22:49:59.975Z,82.80
2018-10-19T22:52:28.588Z,84.67
2018-10-19T22:54:57.153Z,95.47
2018-10-19T22:57:25.691Z,105.27
2018-10-19T22:59:54.212Z,85.00
2018-10-19T23:02:22.732Z,92.23
2018-10-19T23:04:51.261Z,89.47
2018-10-19T23:07:19.845Z,90.33
2018-10-19T23:09:48.519Z,101.67
2018-10-19T23:12:17.045Z,109.50
2018-10-19T23:14:45.611Z,80.30
2018-10-19T23:17:14.229Z,95.07
2018-10-19T23:19:42.707Z,102.73
2018-10-19T23:22:11.259Z,95.03
2018-10-19T23:24:39.755Z,96.30
2018-10-19T23:27:08.308Z,110.30
2018-10-19T23:29:36.831Z,107.40
2018-10-19T23:32:05.703Z,102.37
2018-10-19T23:34:34.314Z,118.03
2018-10-19T23:37:02.886Z,108.97
2018-10-19T23:39:31.372Z,96.17
2018-10-19T23:41:59.886Z,105.63
2018-10-19T23:44:28.430Z,107.87
2018-10-19T23:46:57.074Z,113.37
2018-10-19T23:49:25.621Z,88.13
2018-10-19T23:51:54.128Z,85.23
2018-10-19T23:54:22.673Z,101.73
2018-10-19T23:56:51.185Z,104.67
2018-10-19T23:59:19.748Z,83.87
